Tiempo atmosférico en la estación meteorológica de Josa i Tuixén, Lleida (1190 m.)



Fecha
DESCASC
Temp. máxima en grados centígrados (hora)
DESCASC
Temp. mínima en grados centígrados (hora)
DESCASC
Temp. media en grados centígrados
DESCASC
Racha de viento máxima en m/sg (hora)
DESCASC
Velocidad máxima media en intervalos de 10 minutos(hora)
DESCASC
Precipitaciones diarias en mm
DESCASC
Precipitaciones de 00:00 a 06:00 en mm
DESCASC
Precipitaciones de 06:00 a 12:00 en mm
DESCASC
Precipitaciones de 12:00 a 18:00 en mm
DESCASC
Precipitaciones de 18:00 a 24:00 en mm
DESCASC

Gráficas

Temp. máximas Temp. mínimas Temp. medias Precipitaciones Rachas de viento máximas Velocidades máximas media en intervalos de 10 minutos

Datos horarios

Fecha y hora oficial Temperatura (ºC) Velocidad del viento (km/h) Dirección del viento Racha (km/h) Dirección de racha Precipitación (mm) Presión (hPa) Tendencia (hPa) Humedad (%)
2019-10-19 23:00:00 13.1 0 Calma 12 Este 0 -- -- 76
2019-10-19 22:00:00 12.4 2 Sudeste 11 Noroeste 0 -- -- 75
2019-10-19 21:00:00 11.3 6 Sudoeste 16 Sudoeste 0 -- -- 76
2019-10-19 20:00:00 11.1 0 Calma 8 Sudeste 0 -- -- 76
2019-10-19 19:00:00 14 2 Sudoeste 13 Oeste 0 -- -- 65
2019-10-19 18:00:00 16.3 9 Oeste 21 Noroeste 0 -- -- 53
2019-10-19 17:00:00 17 4 Oeste 13 Oeste 0 -- -- 56
2019-10-19 16:00:00 16.6 4 Norte 19 Oeste 0 -- -- 57
2019-10-19 15:00:00 17.5 10 Sudoeste 21 Sudoeste 0 -- -- 54
2019-10-19 14:00:00 16.3 7 Nordeste 17 Nordeste 0 -- -- 57
2019-10-19 13:00:00 15.9 6 Nordeste 18 Sur 0 -- -- 60
2019-10-19 12:00:00 14.2 3 Norte 8 Nordeste 0 -- -- 74
2019-10-19 11:00:00 11.8 2 Sudoeste 8 Este 0 -- -- 86
2019-10-19 10:00:00 10.3 4 Sur 17 Noroeste 0 -- -- 94
2019-10-19 09:00:00 9 2 Sudeste 5 Sudeste 0 -- -- 98
2019-10-19 08:00:00 8.6 0 Calma 4 Oeste 0 -- -- 98
2019-10-19 07:00:00 8.3 2 Sudoeste 8 Sudeste 0 -- -- 94
2019-10-19 06:00:00 8.7 3 Sudoeste 8 Oeste 0 -- -- 94
2019-10-19 05:00:00 9.1 2 Sur 6 Este 0 -- -- 92
2019-10-19 04:00:00 9.1 2 Sur 6 Sudoeste 0 -- -- 91
2019-10-19 03:00:00 9.9 2 Sudeste 5 Oeste 0 -- -- 87
2019-10-19 02:00:00 10.1 4 Este 7 Este 0 -- -- 85
2019-10-19 01:00:00 10.9 2 Sur 9 Nordeste 0 -- -- 82
2019-10-19 00:00:00 10.6 3 Sudoeste 9 Oeste 0 -- -- 85
2019-10-18 23:00:00 10.2 4 Sur 10 Sudeste 0 -- -- 85
2019-10-18 22:00:00 10.4 8 Sur 16 Norte 0 -- -- 81
2019-10-18 21:00:00 11.9 6 Sudeste 11 Sudeste 0 -- -- 76
2019-10-18 20:00:00 12.6 2 Sur 5 Sudeste 0 -- -- 74
2019-10-18 19:00:00 14.6 3 Sur 9 Nordeste 0 -- -- 67
2019-10-18 18:00:00 16.2 2 Nordeste 18 Oeste 0 -- -- 58
2019-10-18 17:00:00 16.6 8 Nordeste 15 Nordeste 0 -- -- 56
2019-10-18 16:00:00 17.5 3 Norte 13 Norte 0 -- -- 57
2019-10-18 15:00:00 17.6 5 Norte 14 Oeste 0 -- -- 59
2019-10-18 14:00:00 -- -- -- -- -- -- -- -- --
2019-10-18 13:00:00 15.3 7 Oeste 18 Oeste 0 -- -- 68
2019-10-18 12:00:00 14.7 3 Oeste 5 Sudoeste 0 -- -- 69
2019-10-18 11:00:00 11.6 0 Calma 5 Oeste 0 -- -- 83
2019-10-18 10:00:00 9.4 0 Calma 3 Oeste 0 -- -- 90
2019-10-18 09:00:00 7.8 0 Calma 4 Sudoeste 0 -- -- 95
2019-10-18 08:00:00 7 2 Sudeste 7 Nordeste 0 -- -- 94
2019-10-18 07:00:00 6.5 4 Nordeste 5 Este 0 -- -- 93
2019-10-18 06:00:00 6.3 0 Calma 4 Sur 0 -- -- 93
2019-10-18 05:00:00 6.4 0 Calma 5 Nordeste 0 -- -- 92
2019-10-18 04:00:00 5.8 2 Sudoeste 7 Este 0 -- -- 95
2019-10-18 03:00:00 5.3 3 Sudeste 5 Sudeste 0 -- -- 94
2019-10-18 02:00:00 5.5 3 Oeste 5 Sur 0 -- -- 93
2019-10-18 01:00:00 5.8 0 Calma 4 Sudeste 0 -- -- 92
2019-10-18 00:00:00 6.4 0 Calma 6 Este 0 -- -- 90
2019-10-17 23:00:00 7.1 0 Calma 5 Sudeste 0 -- -- 87
2019-10-17 22:00:00 7.8 2 Este 5 Este 0 -- -- 84
2019-10-17 21:00:00 9 0 Calma 5 Sur 0 -- -- 81
2019-10-17 20:00:00 10.8 0 Calma 6 Este 0 -- -- 74
2019-10-17 19:00:00 13.1 0 Calma 7 Noroeste 0 -- -- 68
2019-10-17 18:00:00 16 4 Noroeste 11 Nordeste 0 -- -- 55
2019-10-17 17:00:00 16.2 6 Nordeste 13 Nordeste 0 -- -- 48
2019-10-17 16:00:00 17.2 5 Nordeste 17 Nordeste 0 -- -- 45
2019-10-17 15:00:00 18.4 5 Nordeste 18 Norte 0 -- -- 39
2019-10-17 14:00:00 17.8 9 Nordeste 22 Este 0 -- -- 38
2019-10-17 13:00:00 16.9 9 Nordeste 18 Nordeste 0 -- -- 44
2019-10-17 12:00:00 14.4 4 Oeste 6 Oeste 0 -- -- 59
2019-10-17 11:00:00 11.3 2 Oeste 5 Nordeste 0 -- -- 73
2019-10-17 10:00:00 5.7 0 Calma 5 Nordeste 0 -- -- 97
2019-10-17 09:00:00 4.8 0 Calma 5 Nordeste 0 -- -- 94
2019-10-17 08:00:00 4.9 0 Calma 3 Noroeste 0 -- -- 92
2019-10-17 07:00:00 5.2 0 Calma 6 Este 0 -- -- 91
2019-10-17 06:00:00 5.2 0 Calma 3 Oeste 0 -- -- 92
2019-10-17 05:00:00 5 0 Calma 5 Sudeste 0 -- -- 94
2019-10-17 04:00:00 5.1 0 Calma 4 Sudoeste 0 -- -- 93
2019-10-17 03:00:00 5.5 0 Calma 5 Este 0 -- -- 93
2019-10-17 02:00:00 5.5 2 Este 5 Oeste 0 -- -- 92
2019-10-17 01:00:00 5.6 3 Este 5 Este 0 -- -- 91
2019-10-17 00:00:00 6.1 0 Calma 4 Sur 0 -- -- 90
2019-10-16 23:00:00 6.3 0 Calma 4 Este 0 -- -- 90
2019-10-16 22:00:00 6.8 0 Calma 4 Sur 0 -- -- 87
2019-10-16 21:00:00 7.5 4 Este 6 Nordeste 0 -- -- 84
2019-10-16 20:00:00 8.8 2 Sur 8 Nordeste 0 -- -- 79
2019-10-16 19:00:00 11.5 2 Sudoeste 7 Sudeste 0 -- -- 71
2019-10-16 18:00:00 14 3 Nordeste 15 Este 0 -- -- 58
2019-10-16 17:00:00 14.6 5 Nordeste 15 Este 0 -- -- 53
2019-10-16 16:00:00 15.2 5 Este 14 Norte 0 -- -- 51
2019-10-16 15:00:00 14.6 6 Nordeste 15 Nordeste 0 -- -- 52
2019-10-16 14:00:00 14.3 5 Nordeste 22 Nordeste 0 -- -- 53
2019-10-16 13:00:00 13.4 11 Nordeste 22 Nordeste 0 -- -- 55
2019-10-16 12:00:00 12.5 7 Nordeste 15 Nordeste 0 -- -- 57
2019-10-16 11:00:00 10 3 Sudoeste 11 Sur 0 -- -- 68
2019-10-16 10:00:00 4.4 0 Calma 3 Este 0 -- -- 100
2019-10-16 09:00:00 3.4 0 Calma 4 Este 0 -- -- 99
2019-10-16 08:00:00 3 0 Calma 4 Este 0 -- -- 98
2019-10-16 07:00:00 2.8 2 Este 4 Nordeste 0 -- -- 98
2019-10-16 06:00:00 3 2 Sudoeste 4 Oeste 0 -- -- 97
2019-10-16 05:00:00 3 0 Calma 4 Este 0 -- -- 97
2019-10-16 04:00:00 3.1 0 Calma 6 Este 0 -- -- 96
2019-10-16 03:00:00 3.3 5 Este 6 Este 0 -- -- 96
2019-10-16 02:00:00 3.7 2 Sur 4 Sudoeste 0 -- -- 95
2019-10-16 01:00:00 4.2 2 Sudeste 9 Oeste 0 -- -- 93
2019-10-16 00:00:00 4.4 0 Calma 6 Sudoeste 0 -- -- 91
2019-10-15 23:00:00 4.9 2 Sudeste 6 Este 0 -- -- 90
2019-10-15 22:00:00 5.3 0 Calma 5 Sudoeste 0 -- -- 90
2019-10-15 21:00:00 6.2 4 Este 7 Este 0 -- -- 88
2019-10-15 20:00:00 7.5 2 Sudeste 8 Este 0 -- -- 82
2019-10-15 19:00:00 9.8 2 Nordeste 6 Noroeste 0 -- -- 74
2019-10-15 18:00:00 12.9 3 Oeste 12 Nordeste 0 -- -- 56
2019-10-15 17:00:00 14.2 6 Nordeste 18 Noroeste 0 -- -- 46
2019-10-15 16:00:00 14.9 7 Noroeste 22 Norte 0 -- -- 48
2019-10-15 15:00:00 14.3 7 Noroeste 24 Noroeste 0 -- -- 48
2019-10-15 14:00:00 13.8 8 Noroeste 22 Noroeste 0 -- -- 51
2019-10-15 13:00:00 12.7 11 Oeste 23 Oeste 0 -- -- 53
2019-10-15 12:00:00 10.7 6 Nordeste 16 Nordeste 0 -- -- 67
2019-10-15 11:00:00 8.5 4 Sudoeste 9 Noroeste 0 -- -- 85
2019-10-15 10:00:00 5.9 4 Sudoeste 12 Sur 0 -- -- 100
2019-10-15 09:00:00 4.3 2 Sudoeste 7 Este 0 -- -- 99
2019-10-15 08:00:00 5.1 4 Sudoeste 7 Este 0 -- -- 98
2019-10-15 07:00:00 5.5 3 Sudoeste 9 Sudeste 0 -- -- 96
2019-10-15 06:00:00 6.7 6 Nordeste 19 Nordeste 0 -- -- 92
2019-10-15 05:00:00 7.8 5 Este 14 Este 0.2 -- -- 92
2019-10-15 04:00:00 8.9 5 Sur 19 Sudeste 0 -- -- 88
2019-10-15 03:00:00 9.1 5 Norte 10 Oeste 0.2 -- -- 97
2019-10-15 02:00:00 9.4 5 Sudeste 27 Nordeste 4.8 -- -- 92
2019-10-15 01:00:00 9.9 4 Sudeste 13 Sur 0.2 -- -- 96
2019-10-15 00:00:00 10.7 6 Sudeste 19 Sudoeste 2.2 -- -- 92
2019-10-14 23:00:00 11.4 7 Sudeste 22 Oeste 9.2 -- -- 90
2019-10-14 22:00:00 12.6 8 Sur 31 Sur 4.6 -- -- 85
2019-10-14 21:00:00 13.4 12 Sudeste 28 Sur 0.2 -- -- 76
2019-10-14 20:00:00 12.8 11 Sudeste 30 Sudeste 1.2 -- -- 79
2019-10-14 19:00:00 12.1 5 Sudeste 17 Sur 1.6 -- -- 93
2019-10-14 18:00:00 12.5 4 Sudoeste 17 Nordeste 2 -- -- 93
2019-10-14 17:00:00 13.4 6 Sudoeste 22 Norte 3.4 -- -- 88
2019-10-14 16:00:00 16.4 11 Nordeste 21 Nordeste 0 -- -- 69
2019-10-14 15:00:00 17.5 8 Sudoeste 31 Sur 0 -- -- 63
2019-10-14 14:00:00 19.5 10 Sur 33 Sur 0 -- -- 45
2019-10-14 13:00:00 20 13 Sudoeste 30 Sur 0 -- -- 42
2019-10-14 12:00:00 20.3 8 Oeste 22 Sur 0 -- -- 45
2019-10-14 11:00:00 15.9 5 Oeste 16 Sudoeste 0 -- -- 64
2019-10-14 10:00:00 10.1 3 Sudoeste 10 Oeste 0 -- -- 81
2019-10-14 09:00:00 8.9 2 Sur 5 Sur 0 -- -- 82
2019-10-14 08:00:00 8.9 4 Sudoeste 6 Sudoeste 0 -- -- 85
2019-10-14 07:00:00 9.4 2 Sur 6 Este 0 -- -- 85
2019-10-14 06:00:00 8.7 2 Sudoeste 6 Oeste 0 -- -- 85
2019-10-14 05:00:00 9.1 2 Sudoeste 7 Sudeste 0 -- -- 82
2019-10-14 04:00:00 10.2 0 Calma 6 Este 0 -- -- 76
2019-10-14 03:00:00 11.1 2 Oeste 6 Sudoeste 0 -- -- 72
2019-10-14 02:00:00 11.5 2 Sudoeste 6 Sudeste 0 -- -- 70
2019-10-14 01:00:00 12.2 2 Sudeste 12 Este 0 -- -- 69
2019-10-14 00:00:00 13.5 4 Nordeste 11 Sur 0 -- -- 67
2019-10-13 23:00:00 13.7 4 Sur 13 Sur 0 -- -- 81
2019-10-13 22:00:00 14.9 4 Sudeste 10 Sudoeste 0 -- -- 79
2019-10-13 21:00:00 15.2 5 Sur 15 Sudoeste 0 -- -- 78
2019-10-13 20:00:00 16.1 6 Sur 12 Sudoeste 0 -- -- 75
2019-10-13 19:00:00 17.7 5 Sudoeste 21 Oeste 0 -- -- 66
2019-10-13 18:00:00 19.7 15 Oeste 28 Oeste 0 -- -- 57
2019-10-13 17:00:00 20.4 15 Oeste 30 Oeste 0 -- -- 54
2019-10-13 16:00:00 22.1 14 Oeste 26 Oeste 0 -- -- 47
2019-10-13 15:00:00 22.1 14 Oeste 23 Oeste 0 -- -- 47
2019-10-13 14:00:00 21.8 12 Oeste 24 Oeste 0 -- -- 49
2019-10-13 13:00:00 20.9 9 Noroeste 15 Oeste 0 -- -- 52
2019-10-13 12:00:00 17.9 4 Norte 15 Norte 0 -- -- 61
2019-10-13 11:00:00 15.8 2 Norte 13 Sur 0 -- -- 69
2019-10-13 10:00:00 11.5 2 Sur 9 Nordeste 0 -- -- 89
2019-10-13 09:00:00 10.5 3 Oeste 11 Oeste 0 -- -- 91
2019-10-13 08:00:00 11.8 7 Este 17 Sudeste 0 -- -- 83
2019-10-13 07:00:00 10.7 5 Sudeste 10 Sur 0 -- -- 94
2019-10-13 06:00:00 9.1 3 Oeste 13 Sudoeste 0 -- -- 93
2019-10-13 05:00:00 9.6 6 Sudoeste 11 Sudoeste 0 -- -- 92
2019-10-13 04:00:00 9.9 0 Calma 6 Oeste 0 -- -- 83
2019-10-13 03:00:00 11.2 3 Sur 7 Sur 0 -- -- 78
2019-10-13 02:00:00 11.7 3 Sudoeste 13 Este 0 -- -- 74
2019-10-13 01:00:00 12 4 Sudeste 8 Sudeste 0 -- -- 75
2019-10-13 00:00:00 12.4 5 Sudeste 10 Sur 0 -- -- 75
2019-10-12 23:00:00 13.1 2 Sudoeste 13 Sur 0 -- -- 79
2019-10-12 22:00:00 14 5 Sudeste 11 Sur 0 -- -- 79
2019-10-12 21:00:00 13.1 3 Sudeste 6 Nordeste 0 -- -- 80
2019-10-12 20:00:00 14.9 5 Sudeste 8 Sudeste 0 -- -- 77
2019-10-12 19:00:00 17.2 0 Calma 17 Sudoeste 0 -- -- 70
2019-10-12 18:00:00 18.3 4 Noroeste 29 Oeste 0 -- -- 68
2019-10-12 17:00:00 18.8 15 Oeste 30 Oeste 0 -- -- 64
2019-10-12 16:00:00 19.6 18 Oeste 33 Oeste 0 -- -- 61
2019-10-12 15:00:00 21.6 10 Oeste 24 Oeste 0 -- -- 56
2019-10-12 14:00:00 21.1 9 Oeste 21 Oeste 0 -- -- 58
2019-10-12 13:00:00 19 6 Noroeste 20 Noroeste 0 -- -- 65
2019-10-12 12:00:00 17.1 6 Norte 14 Noroeste 0 -- -- 70
2019-10-12 11:00:00 14.6 3 Noroeste 6 Noroeste 0 -- -- 79
2019-10-12 10:00:00 10.8 0 Calma 3 Noroeste 0 -- -- 94
2019-10-12 09:00:00 10.2 3 Sudoeste 6 Oeste 0 -- -- 94
2019-10-12 08:00:00 9.6 3 Este 6 Nordeste 0 -- -- 94
2019-10-12 07:00:00 9 0 Calma 6 Nordeste 0 -- -- 95
2019-10-12 06:00:00 8.9 2 Oeste 8 Sur 0 -- -- 94
2019-10-12 05:00:00 9.8 2 Este 5 Sudoeste 0 -- -- 90
2019-10-12 04:00:00 10.2 5 Este 8 Este 0 -- -- 87
2019-10-12 03:00:00 10.8 2 Nordeste 5 Este 0 -- -- 84
2019-10-12 02:00:00 11.3 2 Sur 4 Sudoeste 0 -- -- 81
2019-10-12 01:00:00 11.3 0 Calma 3 Noroeste 0 -- -- 81
2019-10-12 00:00:00 11.5 0 Calma 4 Este 0 -- -- 81
2019-10-11 23:00:00 12 0 Calma 4 Este 0 -- -- 79
2019-10-11 22:00:00 12.5 0 Calma 3 Sudoeste 0 -- -- 79
2019-10-11 21:00:00 13.2 0 Calma 5 Este 0 -- -- 77
2019-10-11 20:00:00 15 0 Calma 6 Sudeste 0 -- -- 71
2019-10-11 19:00:00 17.8 3 Este 8 Norte 0 -- -- 63
2019-10-11 18:00:00 21.1 4 Oeste 12 Oeste 0 -- -- 51
2019-10-11 17:00:00 22.3 5 Nordeste 18 Nordeste 0 -- -- 44
2019-10-11 16:00:00 23.2 6 Nordeste 18 Nordeste 0 -- -- 39
2019-10-11 15:00:00 22.8 8 Nordeste 18 Nordeste 0 -- -- 38
2019-10-11 14:00:00 21.9 6 Nordeste 13 Norte 0 -- -- 42
2019-10-11 13:00:00 20.2 3 Sudoeste 12 Oeste 0 -- -- 45
2019-10-11 12:00:00 17.4 2 Oeste 8 Oeste 0 -- -- 52
2019-10-11 11:00:00 13.4 2 Oeste 4 Este 0 -- -- 63
2019-10-11 10:00:00 7.2 0 Calma 4 Este 0 -- -- 91
2019-10-11 09:00:00 5.3 0 Calma 3 Oeste 0 -- -- 91
2019-10-11 08:00:00 5.1 0 Calma 3 Nordeste 0 -- -- 91
2019-10-11 07:00:00 5.3 0 Calma 4 Sudeste 0 -- -- 90
2019-10-11 06:00:00 5.5 0 Calma 5 Este 0 -- -- 90
2019-10-11 05:00:00 5.8 0 Calma 4 Oeste 0 -- -- 90
2019-10-11 04:00:00 6 0 Calma 3 Oeste 0 -- -- 90
2019-10-11 03:00:00 6.1 0 Calma 5 Nordeste 0 -- -- 88
2019-10-11 02:00:00 6.5 0 Calma 4 Sudoeste 0 -- -- 86
2019-10-11 01:00:00 6.9 2 Este 5 Este 0 -- -- 84
2019-10-11 00:00:00 7.4 0 Calma 3 Sudoeste 0 -- -- 83
2019-10-10 23:00:00 7.7 0 Calma 4 Este 0 -- -- 82
2019-10-10 22:00:00 8.4 0 Calma 4 Este 0 -- -- 79
2019-10-10 21:00:00 9.4 0 Calma 6 Nordeste 0 -- -- 74
2019-10-10 20:00:00 10.9 3 Este 10 Sudoeste 0 -- -- 69
2019-10-10 19:00:00 14.1 5 Oeste 9 Oeste 0 -- -- 61
2019-10-10 18:00:00 17.6 5 Noroeste 16 Oeste 0 -- -- 49
2019-10-10 17:00:00 18.8 7 Oeste 17 Oeste 0 -- -- 40
2019-10-10 16:00:00 19.9 10 Oeste 19 Noroeste 0 -- -- 38
2019-10-10 15:00:00 19.5 5 Norte 14 Oeste 0 -- -- 39
2019-10-10 14:00:00 19.1 5 Oeste 23 Oeste 0 -- -- 39
2019-10-10 13:00:00 17.6 6 Nordeste 19 Nordeste 0 -- -- 41
2019-10-10 12:00:00 16.6 4 Nordeste 12 Nordeste 0 -- -- 46
2019-10-10 11:00:00 13 2 Oeste 5 Noroeste 0 -- -- 67
2019-10-10 10:00:00 7.2 0 Calma 4 Este 0 -- -- 96
2019-10-10 09:00:00 6.2 0 Calma 4 Este 0 -- -- 93
2019-10-10 08:00:00 6.5 0 Calma 5 Sudeste 0 -- -- 96
2019-10-10 07:00:00 7.2 0 Calma 5 Sudeste 0 -- -- 96
2019-10-10 06:00:00 7.9 0 Calma 8 Este 0 -- -- 96
2019-10-10 05:00:00 8.4 3 Este 6 Nordeste 0 -- -- 93
2019-10-10 04:00:00 10.5 2 Noroeste 8 Sudeste 0 -- -- 91
2019-10-10 03:00:00 10.8 2 Oeste 4 Noroeste 0 -- -- 95
2019-10-10 02:00:00 10.8 2 Este 7 Nordeste 0 -- -- 94
2019-10-10 01:00:00 11.1 0 Calma 5 Sudoeste 0 -- -- 93
2019-10-10 00:00:00 11.3 3 Sudeste 5 Sudeste 0 -- -- 91
2019-10-09 23:00:00 12.1 4 Sudeste 8 Sudeste 0 -- -- 88
2019-10-09 22:00:00 13.4 3 Sudeste 11 Sudoeste 0 -- -- 84
2019-10-09 21:00:00 14.2 2 Sudoeste 11 Sudoeste 0 -- -- 82
2019-10-09 20:00:00 15.1 5 Sudoeste 13 Sudoeste 0 -- -- 78
2019-10-09 19:00:00 17 8 Sudoeste 15 Oeste 0 -- -- 70
2019-10-09 18:00:00 19.8 8 Oeste 21 Oeste 0 -- -- 57
2019-10-09 17:00:00 21.1 14 Oeste 24 Norte 0 -- -- 56
2019-10-09 16:00:00 21.7 8 Norte 21 Oeste 0 -- -- 50
2019-10-09 15:00:00 22.2 5 Noroeste 18 Norte 0 -- -- 53
2019-10-09 14:00:00 21.6 5 Norte 16 Noroeste 0 -- -- 49
2019-10-09 13:00:00 21.3 5 Norte 13 Noroeste 0 -- -- 52
2019-10-09 12:00:00 18.6 5 Oeste 12 Oeste 0 -- -- 58
2019-10-09 11:00:00 16.3 2 Oeste 5 Noroeste 0 -- -- 67
2019-10-09 10:00:00 11.8 4 Este 5 Este 0 -- -- 88
2019-10-09 09:00:00 9.7 0 Calma 4 Sudoeste 0 -- -- 89
2019-10-09 08:00:00 9.3 0 Calma 4 Nordeste 0 -- -- 90
2019-10-09 07:00:00 9.8 0 Calma 4 Sur 0 -- -- 86
2019-10-09 06:00:00 10 3 Sur 6 Sudoeste 0 -- -- 85
2019-10-09 05:00:00 10.3 0 Calma 4 Oeste 0 -- -- 85
2019-10-09 04:00:00 10.5 0 Calma 4 Este 0 -- -- 83
2019-10-09 03:00:00 11.1 0 Calma 5 Nordeste 0 -- -- 79
2019-10-09 02:00:00 11.2 0 Calma 4 Sudoeste 0 -- -- 76
2019-10-09 01:00:00 10.9 0 Calma 4 Nordeste 0 -- -- 76
2019-10-09 00:00:00 11.3 0 Calma 4 Oeste 0 -- -- 74
2019-10-08 23:00:00 12 2 Sudeste 5 Este 0 -- -- 72
2019-10-08 22:00:00 12.6 0 Calma 4 Este 0 -- -- 68
2019-10-08 21:00:00 13.4 0 Calma 4 Este 0 -- -- 66
2019-10-08 20:00:00 15.2 0 Calma 7 Este 0 -- -- 62
2019-10-08 19:00:00 18.4 0 Calma 11 Noroeste 0 -- -- 51
2019-10-08 18:00:00 21.4 6 Oeste 13 Oeste 0 -- -- 45
2019-10-08 17:00:00 22.5 9 Oeste 20 Oeste 0 -- -- 42
2019-10-08 16:00:00 22.9 14 Oeste 23 Oeste 0 -- -- 39
2019-10-08 15:00:00 23.1 15 Oeste 26 Oeste 0 -- -- 41
2019-10-08 14:00:00 23.5 7 Noroeste 17 Sudoeste 0 -- -- 43
2019-10-08 13:00:00 21.3 5 Noroeste 13 Noroeste 0 -- -- 47
2019-10-08 12:00:00 19.1 2 Norte 6 Noroeste 0 -- -- 52
2019-10-08 11:00:00 16.1 3 Oeste 6 Noroeste 0 -- -- 62
2019-10-08 10:00:00 10.5 2 Sudoeste 6 Este 0 -- -- 87
2019-10-08 09:00:00 8.7 2 Sudoeste 5 Sudoeste 0 -- -- 88
2019-10-08 08:00:00 8.5 0 Calma 6 Nordeste 0 -- -- 84
2019-10-08 07:00:00 8.6 3 Sudoeste 6 Este 0 -- -- 81
2019-10-08 06:00:00 9.3 0 Calma 4 Oeste 0 -- -- 76
2019-10-08 05:00:00 9.1 0 Calma 6 Sudoeste 0 -- -- 72
2019-10-08 04:00:00 9.2 2 Sudoeste 4 Sudoeste 0 -- -- 70
2019-10-08 03:00:00 9.5 0 Calma 10 Sudoeste 0 -- -- 68
2019-10-08 02:00:00 9.9 5 Nordeste 8 Este 0 -- -- 64
2019-10-08 01:00:00 11 0 Calma 5 Nordeste 0 -- -- 57
2019-10-08 00:00:00 11.6 0 Calma 5 Este 0 -- -- 53
2019-10-07 23:00:00 11.4 3 Norte 6 Este 0 -- -- 57
2019-10-07 22:00:00 11.7 0 Calma 6 Sudeste 0 -- -- 53
2019-10-07 21:00:00 13.1 0 Calma 6 Sudeste 0 -- -- 49
2019-10-07 20:00:00 14.7 3 Sudeste 13 Sudoeste 0 -- -- 50
2019-10-07 19:00:00 17.5 8 Sudoeste 23 Sudoeste 0 -- -- 44
2019-10-07 18:00:00 19.6 14 Sudoeste 25 Oeste 0 -- -- 39
2019-10-07 17:00:00 21.9 7 Noroeste 24 Noroeste 0 -- -- 28
2019-10-07 16:00:00 22.4 9 Norte 26 Nordeste 0 -- -- 17
2019-10-07 15:00:00 21.7 3 Nordeste 13 Nordeste 0 -- -- 17
2019-10-07 14:00:00 20.5 5 Norte 12 Oeste 0 -- -- 19
2019-10-07 13:00:00 18.7 4 Sudoeste 11 Noroeste 0 -- -- 21
2019-10-07 12:00:00 16 4 Noroeste 9 Noroeste 0 -- -- 29
2019-10-07 11:00:00 11.1 2 Oeste 6 Oeste 0 -- -- 47
2019-10-07 10:00:00 5.4 0 Calma 5 Sur 0 -- -- 70
2019-10-07 09:00:00 5.1 0 Calma 9 Sudeste 0 -- -- 61
2019-10-07 08:00:00 5.6 5 Oeste 11 Sudeste 0 -- -- 63
2019-10-07 07:00:00 5.4 3 Este 9 Este 0 -- -- 66
2019-10-07 06:00:00 6 0 Calma 8 Sudeste 0 -- -- 67
2019-10-07 05:00:00 8.1 4 Sudeste 13 Nordeste 0 -- -- 60
2019-10-07 04:00:00 8.8 5 Sur 12 Sur 0 -- -- 56
2019-10-07 03:00:00 9.9 3 Sur 22 Nordeste 0 -- -- 56
2019-10-07 02:00:00 12 12 Nordeste 24 Este 0 -- -- 50
2019-10-07 01:00:00 12.8 7 Nordeste 33 Noroeste 0 -- -- 48
2019-10-07 00:00:00 13.2 8 Nordeste 21 Nordeste 0 -- -- 49
2019-10-06 23:00:00 10.1 3 Sudeste 8 Sudeste 0 -- -- 85
2019-10-06 22:00:00 10.9 2 Sudoeste 5 Sudeste 0 -- -- 83
2019-10-06 21:00:00 12.3 0 Calma 6 Sudoeste 0 -- -- 79
2019-10-06 20:00:00 14.5 0 Calma 14 Nordeste 0 -- -- 73
2019-10-06 19:00:00 16.6 7 Nordeste 13 Nordeste 0 -- -- 65
2019-10-06 18:00:00 18.6 4 Nordeste 15 Nordeste 0 -- -- 58
2019-10-06 17:00:00 19.5 6 Nordeste 22 Oeste 0 -- -- 55
2019-10-06 16:00:00 20.4 12 Oeste 18 Oeste 0 -- -- 57
2019-10-06 15:00:00 19.4 5 Norte 18 Norte 0 -- -- 56
2019-10-06 14:00:00 19.5 5 Norte 12 Oeste 0 -- -- 55
2019-10-06 13:00:00 17.9 3 Norte 10 Sudoeste 0 -- -- 61
2019-10-06 12:00:00 15.3 6 Sur 11 Sur 0 -- -- 70
2019-10-06 11:00:00 13.6 0 Calma 6 Oeste 0 -- -- 79
2019-10-06 10:00:00 9.3 0 Calma 7 Este 0 -- -- 100
2019-10-06 09:00:00 7.4 0 Calma 8 Este 0 -- -- 100
2019-10-06 08:00:00 7.3 0 Calma 6 Nordeste 0 -- -- 98
2019-10-06 07:00:00 7.4 2 Oeste 6 Este 0 -- -- 98
2019-10-06 06:00:00 7.9 0 Calma 4 Oeste 0 -- -- 98
2019-10-06 05:00:00 8.1 2 Sudeste 5 Sudoeste 0 -- -- 98
2019-10-06 04:00:00 8.3 0 Calma 4 Este 0 -- -- 96
2019-10-06 03:00:00 8.8 0 Calma 4 Nordeste 0 -- -- 96
2019-10-06 02:00:00 8.9 0 Calma 4 Este 0 -- -- 96
2019-10-06 01:00:00 9.3 0 Calma 3 Nordeste 0 -- -- 92
2019-10-06 00:00:00 9.7 0 Calma 3 Sudoeste 0 -- -- 91
2019-10-05 23:00:00 10.2 0 Calma 4 Este 0 -- -- 90
2019-10-05 22:00:00 11 3 Sur 5 Este 0 -- -- 85
2019-10-05 21:00:00 12.5 0 Calma 10 Sur 0 -- -- 79
2019-10-05 20:00:00 15.3 3 Sudoeste 12 Sudoeste 0 -- -- 67
2019-10-05 19:00:00 17.5 7 Sudoeste 14 Sudoeste 0 -- -- 62
2019-10-05 18:00:00 20 8 Oeste 22 Oeste 0 -- -- 58
2019-10-05 17:00:00 20.6 14 Oeste 23 Oeste 0 -- -- 55
2019-10-05 16:00:00 21.3 14 Oeste 30 Sudoeste 0 -- -- 54
2019-10-05 15:00:00 22.5 16 Sudoeste 25 Noroeste 0 -- -- 49
2019-10-05 14:00:00 22.7 6 Noroeste 15 Noroeste 0 -- -- 42
2019-10-05 13:00:00 20.4 6 Oeste 13 Noroeste 0 -- -- 46
2019-10-05 12:00:00 17.9 4 Oeste 10 Noroeste 0 -- -- 52
2019-10-05 11:00:00 15 4 Oeste 6 Oeste 0 -- -- 59
2019-10-05 10:00:00 8.9 0 Calma 4 Sudeste 0 -- -- 93
2019-10-05 09:00:00 7.2 0 Calma 3 Oeste 0 -- -- 91
2019-10-05 08:00:00 7.6 2 Este 4 Este 0 -- -- 90
2019-10-05 07:00:00 7.7 0 Calma 6 Sur 0 -- -- 94
2019-10-05 06:00:00 7.9 3 Sudoeste 6 Sur 0 -- -- 96
2019-10-05 05:00:00 8.4 0 Calma 9 Este 0 -- -- 96
2019-10-05 04:00:00 8.7 2 Sudeste 7 Este 0 -- -- 92
2019-10-05 03:00:00 9.6 0 Calma 6 Este 0 -- -- 91
2019-10-05 02:00:00 10.5 0 Calma 8 Este 0 -- -- 85
2019-10-05 01:00:00 11.2 3 Sur 8 Nordeste 0 -- -- 81
2019-10-05 00:00:00 11.6 2 Sur 4 Este 0 -- -- 78
2019-10-04 23:00:00 11.3 2 Sur 10 Este 0 -- -- 74
2019-10-04 22:00:00 11.7 0 Calma 5 Sudeste 0 -- -- 70
2019-10-04 21:00:00 12 2 Este 5 Sudeste 0 -- -- 67
2019-10-04 20:00:00 13.4 0 Calma 5 Nordeste 0 -- -- 64
2019-10-04 19:00:00 16.9 2 Sudoeste 10 Noroeste 0 -- -- 54
2019-10-04 18:00:00 20 9 Oeste 15 Oeste 0 -- -- 45
2019-10-04 17:00:00 20.5 12 Oeste 27 Sudoeste 0 -- -- 44
2019-10-04 16:00:00 20.7 19 Oeste 30 Oeste 0 -- -- 44
2019-10-04 15:00:00 21.2 16 Sudoeste 25 Sudoeste 0 -- -- 46
2019-10-04 14:00:00 21.9 13 Oeste 21 Noroeste 0 -- -- 46
2019-10-04 13:00:00 21.1 4 Noroeste 10 Oeste 0 -- -- 35
2019-10-04 12:00:00 18.6 2 Oeste 6 Noroeste 0 -- -- 35
2019-10-04 11:00:00 14.5 0 Calma 4 Oeste 0 -- -- 48
2019-10-04 10:00:00 8.1 0 Calma 4 Sudoeste 0 -- -- 70
2019-10-04 09:00:00 6.2 0 Calma 3 Sudoeste 0 -- -- 66
2019-10-04 08:00:00 6.2 0 Calma 4 Este 0 -- -- 64
2019-10-04 07:00:00 5.8 0 Calma 5 Este 0 -- -- 68
2019-10-04 06:00:00 6 2 Este 5 Nordeste 0 -- -- 72
2019-10-04 05:00:00 6.4 0 Calma 4 Este 0 -- -- 73
2019-10-04 04:00:00 6.8 0 Calma 4 Nordeste 0 -- -- 75
2019-10-04 03:00:00 6.8 0 Calma 4 Sudoeste 0 -- -- 77
2019-10-04 02:00:00 7.3 2 Sudoeste 5 Este 0 -- -- 76
2019-10-04 01:00:00 7.9 0 Calma 5 Oeste 0 -- -- 76
2019-10-04 00:00:00 8.4 0 Calma 4 Sudoeste 0 -- -- 76
2019-10-03 23:00:00 9.4 0 Calma 4 Sudoeste 0 -- -- 73
2019-10-03 22:00:00 10.4 0 Calma 4 Oeste 0 -- -- 69
2019-10-03 21:00:00 11.3 0 Calma 5 Sudeste 0 -- -- 67
2019-10-03 20:00:00 13.2 2 Sudoeste 4 Oeste 0 -- -- 63
2019-10-03 19:00:00 17.2 2 Oeste 14 Noroeste 0 -- -- 51
2019-10-03 18:00:00 19.7 7 Oeste 18 Oeste 0 -- -- 46
2019-10-03 17:00:00 21.2 10 Oeste 19 Noroeste 0 -- -- 38
2019-10-03 16:00:00 23 10 Noroeste 21 Sudoeste 0 -- -- 26
2019-10-03 15:00:00 21.8 5 Oeste 14 Sudoeste 0 -- -- 20
2019-10-03 14:00:00 19.9 4 Oeste 10 Oeste 0 -- -- 24
2019-10-03 13:00:00 16.7 3 Oeste 9 Noroeste 0 -- -- 33
2019-10-03 12:00:00 13.1 2 Oeste 5 Sudoeste 0 -- -- 50
2019-10-03 11:00:00 9.8 0 Calma 5 Oeste 0 -- -- 60
2019-10-03 10:00:00 7 0 Calma 4 Noroeste 0 -- -- 75
2019-10-03 09:00:00 5 0 Calma 6 Este 0 -- -- 79
2019-10-03 08:00:00 4.4 2 Oeste 5 Sudoeste 0 -- -- 75
2019-10-03 07:00:00 4.7 0 Calma 5 Oeste 0 -- -- 76
2019-10-03 06:00:00 5 0 Calma 4 Sur 0 -- -- 76
2019-10-03 05:00:00 5.4 2 Este 5 Sur 0 -- -- 75
2019-10-03 04:00:00 5.3 0 Calma 7 Oeste 0 -- -- 76
2019-10-03 03:00:00 6.1 0 Calma 9 Noroeste 0 -- -- 72
2019-10-03 02:00:00 6.2 3 Sur 8 Sudeste 0 -- -- 74
2019-10-03 01:00:00 6.8 3 Sudeste 8 Nordeste 0 -- -- 73
2019-10-03 00:00:00 7.7 5 Este 8 Este 0 -- -- 69
2019-10-02 23:00:00 9.6 3 Este 13 Sur 0 -- -- 62
2019-10-02 22:00:00 10.7 3 Sudoeste 14 Sudoeste 0 -- -- 58
2019-10-02 21:00:00 12.3 6 Sudeste 17 Noroeste 0 -- -- 52
2019-10-02 20:00:00 13.5 4 Sudoeste 18 Nordeste 0 -- -- 50
2019-10-02 19:00:00 16 8 Nordeste 23 Norte 0 -- -- 44
2019-10-02 18:00:00 17.5 8 Noroeste 29 Noroeste 0 -- -- 40
2019-10-02 17:00:00 18.3 9 Nordeste 32 Noroeste 0 -- -- 36
2019-10-02 16:00:00 19 13 Norte 41 Oeste 0 -- -- 36
2019-10-02 15:00:00 18.5 8 Norte 24 Norte 0 -- -- 41
2019-10-02 14:00:00 18.1 9 Nordeste 24 Este 0 -- -- 44
2019-10-02 13:00:00 18.2 8 Norte 23 Norte 0 -- -- 43
2019-10-02 12:00:00 17.3 8 Norte 24 Noroeste 0 -- -- 46
2019-10-02 11:00:00 15.4 6 Nordeste 18 Norte 0 -- -- 51
2019-10-02 10:00:00 11.5 6 Este 12 Este 0 -- -- 64
2019-10-02 09:00:00 7.9 0 Calma 5 Nordeste 0 -- -- 73
2019-10-02 08:00:00 8.5 2 Sudoeste 10 Este 0 -- -- 68
2019-10-02 07:00:00 8.6 3 Sur 12 Nordeste 0 -- -- 67
2019-10-02 06:00:00 8.4 5 Sudeste 10 Este 0 -- -- 67
2019-10-02 05:00:00 9.1 3 Este 10 Nordeste 0 -- -- 65
2019-10-02 04:00:00 9.9 2 Norte 7 Sudoeste 0 -- -- 66
2019-10-02 03:00:00 10.5 3 Sur 6 Sur 0 -- -- 72
2019-10-02 02:00:00 10.9 0 Calma 7 Este 0 -- -- 83
2019-10-02 01:00:00 11.7 3 Sudoeste 7 Sudeste 0 -- -- 81
2019-10-02 00:00:00 12.6 3 Sur 9 Sur 0 -- -- 78
2019-10-01 23:00:00 13.9 0 Calma 6 Este 0 -- -- 77
2019-10-01 22:00:00 15.2 4 Sudeste 9 Sudeste 0 -- -- 72
2019-10-01 21:00:00 17.2 5 Sur 10 Sudoeste 0 -- -- 63
2019-10-01 20:00:00 19.2 3 Sur 23 Sudoeste 0 -- -- 56
2019-10-01 19:00:00 20.7 9 Oeste 15 Sudoeste 0 -- -- 54
2019-10-01 18:00:00 22.7 8 Noroeste 18 Noroeste 0 -- -- 43
2019-10-01 17:00:00 23.6 5 Oeste 18 Oeste 0 -- -- 37
2019-10-01 16:00:00 24.5 6 Norte 19 Nordeste 0 -- -- 34
2019-10-01 15:00:00 24 7 Nordeste 16 Nordeste 0 -- -- 33
2019-10-01 14:00:00 23.9 6 Noroeste 15 Oeste 0 -- -- 33
2019-10-01 13:00:00 23.3 4 Nordeste 9 Nordeste 0 -- -- 37
2019-10-01 12:00:00 21 2 Noroeste 6 Oeste 0 -- -- 51
2019-10-01 11:00:00 17.1 2 Noroeste 5 Oeste 0 -- -- 66
2019-10-01 10:00:00 11.8 0 Calma 4 Sudoeste 0 -- -- 85
2019-10-01 09:00:00 9.9 3 Este 5 Nordeste 0 -- -- 87
2019-10-01 08:00:00 9.5 0 Calma 4 Oeste 0 -- -- 85
2019-10-01 07:00:00 9.7 0 Calma 5 Nordeste 0 -- -- 84
2019-10-01 06:00:00 9.4 2 Sur 3 Sur 0 -- -- 85
2019-10-01 05:00:00 9.8 0 Calma 4 Oeste 0 -- -- 83
2019-10-01 04:00:00 10.1 0 Calma 4 Oeste 0 -- -- 81
2019-10-01 03:00:00 10.7 0 Calma 4 Oeste 0 -- -- 79
2019-10-01 02:00:00 11.1 0 Calma 5 Este 0 -- -- 78
2019-10-01 01:00:00 11.5 0 Calma 4 Nordeste 0 -- -- 76
2019-10-01 00:00:00 12 0 Calma 3 Este 0 -- -- 75
2019-09-30 23:00:00 12.7 2 Este 4 Sudeste 0 -- -- 73
2019-09-30 22:00:00 13.4 2 Nordeste 6 Este 0 -- -- 72
2019-09-30 21:00:00 15 0 Calma 5 Sudeste 0 -- -- 69
2019-09-30 20:00:00 16.8 2 Sudeste 6 Oeste 0 -- -- 65
2019-09-30 19:00:00 21 0 Calma 16 Oeste 0 -- -- 50
2019-09-30 18:00:00 22.9 9 Oeste 19 Oeste 0 -- -- 48
2019-09-30 17:00:00 23.9 7 Noroeste 18 Nordeste 0 -- -- 43
2019-09-30 16:00:00 24.4 6 Norte 18 Noroeste 0 -- -- 42
2019-09-30 15:00:00 24.4 5 Noroeste 19 Noroeste 0 -- -- 41
2019-09-30 14:00:00 23.6 5 Norte 14 Oeste 0 -- -- 40
2019-09-30 13:00:00 22.7 5 Norte 16 Nordeste 0 -- -- 40
2019-09-30 12:00:00 21 2 Nordeste 8 Oeste 0 -- -- 49
2019-09-30 11:00:00 -- 3 Oeste 5 Oeste 0 -- -- --
2019-09-30 10:00:00 12.2 0 Calma 5 Oeste 0 -- -- 77
2019-09-30 09:00:00 9.5 2 Sudoeste 6 Sur 0 -- -- 82
2019-09-30 08:00:00 9.9 3 Sudeste 8 Este 0 -- -- 77
2019-09-30 07:00:00 9.9 3 Sur 6 Sudeste 0 -- -- 77
2019-09-30 06:00:00 10 4 Nordeste 10 Sudeste 0 -- -- 77
2019-09-30 05:00:00 10.8 5 Sur 9 Oeste 0 -- -- 74
2019-09-30 04:00:00 11 0 Calma 8 Sudeste 0 -- -- 74
2019-09-30 03:00:00 11.4 2 Sudoeste 6 Sudoeste 0 -- -- 72
2019-09-30 02:00:00 12.1 0 Calma 4 Sudoeste 0 -- -- 73
2019-09-30 01:00:00 12.5 0 Calma 5 Este 0 -- -- 74
2019-09-30 00:00:00 12.8 2 Sudeste 6 Este 0 -- -- 77
2019-09-29 23:00:00 13.5 0 Calma 5 Este 0 -- -- 73
2019-09-29 22:00:00 14 0 Calma 6 Este 0 -- -- 73
2019-09-29 21:00:00 15.2 0 Calma 4 Sudoeste 0 -- -- 68
2019-09-29 20:00:00 16.6 3 Este 8 Sudeste 0 -- -- 62
2019-09-29 19:00:00 21.2 3 Sudoeste 18 Nordeste 0 -- -- 46
2019-09-29 18:00:00 23.4 6 Nordeste 20 Nordeste 0 -- -- 36
2019-09-29 17:00:00 24 7 Nordeste 20 Nordeste 0 -- -- 30
2019-09-29 16:00:00 25.3 4 Noroeste 17 Norte 0 -- -- 26
2019-09-29 15:00:00 25.3 4 Nordeste 21 Nordeste 0 -- -- 30
2019-09-29 14:00:00 24.3 6 Norte 19 Nordeste 0 -- -- 34
2019-09-29 13:00:00 22.9 4 Nordeste 11 Nordeste 0 -- -- 37
2019-09-29 12:00:00 20.8 3 Oeste 11 Noroeste 0 -- -- 54
2019-09-29 11:00:00 16.1 0 Calma 3 Noroeste 0 -- -- 75
2019-09-29 10:00:00 10.6 0 Calma 5 Este 0 -- -- 100
2019-09-29 09:00:00 8.6 0 Calma 4 Oeste 0 -- -- 99
2019-09-29 08:00:00 8.4 0 Calma 4 Sudoeste 0 -- -- 99
2019-09-29 07:00:00 8.8 0 Calma 4 Oeste 0 -- -- 99
2019-09-29 06:00:00 9 0 Calma 4 Oeste 0 -- -- 98
2019-09-29 05:00:00 9.3 0 Calma 4 Sudoeste 0 -- -- 98
2019-09-29 04:00:00 9.6 0 Calma 4 Este 0 -- -- 96
2019-09-29 03:00:00 9.9 0 Calma 3 Sur 0 -- -- 96
2019-09-29 02:00:00 10 0 Calma 3 Oeste 0 -- -- 94
2019-09-29 01:00:00 10.6 2 Este 5 Este 0 -- -- 92
2019-09-29 00:00:00 11.3 0 Calma 6 Este 0 -- -- 92
2019-09-28 23:00:00 11.8 2 Sudoeste 4 Sudoeste 0 -- -- 90
2019-09-28 22:00:00 12.7 2 Sudoeste 6 Nordeste 0 -- -- 86
2019-09-28 21:00:00 13.7 0 Calma 5 Este 0 -- -- 81
2019-09-28 20:00:00 15.4 3 Este 5 Noroeste 0 -- -- 74
2019-09-28 19:00:00 19.3 3 Oeste 16 Nordeste 0 -- -- 60
2019-09-28 18:00:00 20.7 5 Nordeste 19 Nordeste 0 -- -- 51
2019-09-28 17:00:00 21.1 6 Nordeste 21 Oeste 0 -- -- 48
2019-09-28 16:00:00 21.5 6 Noroeste 23 Norte 0 -- -- 47
2019-09-28 15:00:00 21.9 6 Norte 21 Norte 0 -- -- 46
2019-09-28 14:00:00 21.4 5 Nordeste 18 Norte 0 -- -- 46
2019-09-28 13:00:00 20.3 7 Nordeste 18 Nordeste 0 -- -- 51
2019-09-28 12:00:00 18.9 4 Norte 9 Norte 0 -- -- 60
2019-09-28 11:00:00 16.2 2 Norte 6 Norte 0 -- -- 69
2019-09-28 10:00:00 11.7 0 Calma 6 Este 0 -- -- 88
2019-09-28 09:00:00 9.3 0 Calma 5 Sudeste 0 -- -- 92
2019-09-28 08:00:00 8.7 0 Calma 8 Sur 0 -- -- 89
2019-09-28 07:00:00 9.3 2 Sudoeste 6 Sur 0 -- -- 87
2019-09-28 06:00:00 9.5 2 Sudeste 10 Sudeste 0 -- -- 88
2019-09-28 05:00:00 9.9 3 Sudeste 13 Sur 0 -- -- 89
2019-09-28 04:00:00 10.6 5 Sur 9 Sudeste 0 -- -- 88
2019-09-28 03:00:00 11.5 2 Sudoeste 5 Sudoeste 0 -- -- 83
2019-09-28 02:00:00 11.3 3 Sudeste 6 Sudeste 0 -- -- 82
2019-09-28 01:00:00 11.4 2 Este 6 Sudeste 0 -- -- 83
2019-09-28 00:00:00 12.1 0 Calma 4 Este 0 -- -- 82
2019-09-27 23:00:00 12.8 4 Sudoeste 7 Sur 0 -- -- 80
2019-09-27 22:00:00 13.6 0 Calma 6 Este 0 -- -- 79
2019-09-27 21:00:00 15.2 3 Sur 5 Sudeste 0 -- -- 74
2019-09-27 20:00:00 17 4 Este 9 Sudoeste 0 -- -- 68
2019-09-27 19:00:00 20.2 5 Oeste 17 Sudoeste 0 -- -- 58
2019-09-27 18:00:00 22.6 5 Noroeste 14 Nordeste 0 -- -- 46
2019-09-27 17:00:00 23.1 8 Oeste 18 Oeste 0 -- -- 44
2019-09-27 16:00:00 23.4 7 Nordeste 21 Oeste 0 -- -- 43
2019-09-27 15:00:00 23 9 Oeste 23 Oeste 0 -- -- 47
2019-09-27 14:00:00 23.2 6 Nordeste 20 Oeste 0 -- -- 44
2019-09-27 13:00:00 -- -- -- -- -- -- -- -- --
2019-09-27 12:00:00 20.9 9 Este 14 Este 0 -- -- 53
2019-09-27 11:00:00 17.5 2 Norte 5 Este 0 -- -- 71
2019-09-27 10:00:00 12.4 0 Calma 4 Sudeste 0 -- -- 97
2019-09-27 09:00:00 10 0 Calma 3 Este 0 -- -- 98
2019-09-27 08:00:00 9.8 0 Calma 4 Sudeste 0 -- -- 96
2019-09-27 07:00:00 9.8 0 Calma 3 Oeste 0 -- -- 96
2019-09-27 06:00:00 10 2 Este 4 Nordeste 0 -- -- 95
2019-09-27 05:00:00 10.2 0 Calma 4 Este 0 -- -- 93
2019-09-27 04:00:00 10.7 0 Calma 3 Sudeste 0 -- -- 91
2019-09-27 03:00:00 11 0 Calma 4 Este 0 -- -- 89
2019-09-27 02:00:00 11.3 0 Calma 5 Este 0 -- -- 88
2019-09-27 01:00:00 11.7 0 Calma 5 Sudoeste 0 -- -- 87
2019-09-27 00:00:00 11.8 0 Calma 5 Este 0 -- -- 86
2019-09-26 23:00:00 12.3 0 Calma 3 Sudeste 0 -- -- 84
2019-09-26 22:00:00 13 0 Calma 5 Nordeste 0 -- -- 81
2019-09-26 21:00:00 14 2 Sudoeste 6 Este 0 -- -- 78
2019-09-26 20:00:00 15.9 3 Nordeste 8 Este 0 -- -- 74
2019-09-26 19:00:00 19.3 2 Noroeste 9 Noroeste 0 -- -- 60
2019-09-26 18:00:00 21.3 4 Noroeste 12 Noroeste 0 -- -- 57
2019-09-26 17:00:00 21.7 4 Norte 18 Oeste 0 -- -- 55
2019-09-26 16:00:00 21.9 14 Oeste 23 Oeste 0 -- -- 55
2019-09-26 15:00:00 21.7 12 Oeste 22 Oeste 0 -- -- 59
2019-09-26 14:00:00 21.8 12 Sudoeste 18 Sudoeste 0 -- -- 54
2019-09-26 13:00:00 20.6 5 Norte 15 Noroeste 0 -- -- 57
2019-09-26 12:00:00 18.4 6 Oeste 13 Oeste 0 -- -- 61
2019-09-26 11:00:00 16.3 2 Oeste 4 Noroeste 0 -- -- 67
2019-09-26 10:00:00 11.2 0 Calma 5 Este 0 -- -- 95
2019-09-26 09:00:00 8.5 0 Calma 4 Oeste 0 -- -- 98
2019-09-26 08:00:00 8.2 0 Calma 5 Sudeste 0 -- -- 96
2019-09-26 07:00:00 8.4 0 Calma 3 Sudoeste 0 -- -- 95
2019-09-26 06:00:00 8.7 0 Calma 4 Este 0 -- -- 94
2019-09-26 05:00:00 8.7 0 Calma 3 Sudoeste 0 -- -- 94
2019-09-26 04:00:00 9.2 0 Calma 4 Sudoeste 0 -- -- 91
2019-09-26 03:00:00 9.4 0 Calma 4 Nordeste 0 -- -- 91
2019-09-26 02:00:00 9.7 0 Calma 5 Este 0 -- -- 89
2019-09-26 01:00:00 10 0 Calma 5 Este 0 -- -- 88
2019-09-26 00:00:00 10.2 0 Calma 4 Este 0 -- -- 86
2019-09-25 23:00:00 11.2 0 Calma 5 Este 0 -- -- 82
2019-09-25 22:00:00 12.9 0 Calma 4 Este 0 -- -- 76
2019-09-25 21:00:00 14.3 2 Sudoeste 12 Sudoeste 0 -- -- 69
2019-09-25 20:00:00 14.8 5 Sudoeste 10 Oeste 0 -- -- 66
2019-09-25 19:00:00 16.6 3 Noroeste 11 Norte 0 -- -- 64
2019-09-25 18:00:00 18.2 5 Noroeste 15 Oeste 0 -- -- 59
2019-09-25 17:00:00 18.8 13 Noroeste 28 Oeste 0 -- -- 56
2019-09-25 16:00:00 18.7 16 Oeste 28 Oeste 0 -- -- 56
2019-09-25 15:00:00 19.9 14 Oeste 22 Sudoeste 0 -- -- 56
2019-09-25 14:00:00 19.5 10 Oeste 26 Oeste 0 -- -- 56
2019-09-25 13:00:00 18.8 14 Sudoeste 27 Nordeste 0 -- -- 58
2019-09-25 12:00:00 18 7 Noroeste 21 Noroeste 0 -- -- 57
2019-09-25 11:00:00 15.9 6 Este 13 Sudeste 0 -- -- 63
2019-09-25 10:00:00 14.5 4 Sudeste 12 Este 0 -- -- 71
2019-09-25 09:00:00 12.6 3 Sudoeste 8 Este 0 -- -- 86
2019-09-25 08:00:00 11.9 4 Este 6 Este 0 -- -- 88
2019-09-25 07:00:00 12.1 4 Este 7 Este 0 -- -- 85
2019-09-25 06:00:00 12.2 4 Este 9 Sudeste 0 -- -- 83
2019-09-25 05:00:00 13 0 Calma 9 Sur 0 -- -- 78
2019-09-25 04:00:00 13 4 Este 8 Noroeste 0 -- -- 81
2019-09-25 03:00:00 12.8 4 Sudeste 10 Sudeste 0 -- -- 82
2019-09-25 02:00:00 12.6 4 Sudeste 9 Noroeste 0 -- -- 80
2019-09-25 01:00:00 12.3 3 Nordeste 7 Este 0 -- -- 82
2019-09-25 00:00:00 12 2 Sudeste 12 Nordeste 0 -- -- 82
2019-09-24 23:00:00 12.7 2 Nordeste 15 Noroeste 0 -- -- 80
2019-09-24 22:00:00 13.4 4 Sur 19 Noroeste 0 -- -- 77
2019-09-24 21:00:00 14.2 4 Sur 12 Sudeste 0 -- -- 76
2019-09-24 20:00:00 16.7 2 Sudeste 9 Sudoeste 0 -- -- 66
2019-09-24 19:00:00 20.7 4 Oeste 19 Este 0 -- -- 55
2019-09-24 18:00:00 21.9 9 Nordeste 23 Nordeste 0 -- -- 48
2019-09-24 17:00:00 22.2 9 Nordeste 24 Nordeste 0 -- -- 48
2019-09-24 16:00:00 22.8 8 Nordeste 30 Nordeste 0 -- -- 48
2019-09-24 15:00:00 22.9 10 Nordeste 22 Nordeste 0 -- -- 46
2019-09-24 14:00:00 22.3 6 Nordeste 15 Nordeste 0 -- -- 42
2019-09-24 13:00:00 21.4 14 Este 22 Este 0 -- -- 45
2019-09-24 12:00:00 20 4 Noroeste 8 Oeste 0 -- -- 52
2019-09-24 11:00:00 16.8 0 Calma 5 Este 0 -- -- 64
2019-09-24 10:00:00 11.4 2 Sur 6 Sudeste 0 -- -- 86
2019-09-24 09:00:00 8.7 0 Calma 4 Este 0 -- -- 94
2019-09-24 08:00:00 8.2 0 Calma 4 Sudeste 0 -- -- 95
2019-09-24 07:00:00 8.2 2 Sudeste 4 Sudeste 0 -- -- 94
2019-09-24 06:00:00 8.3 2 Sudoeste 4 Este 0 -- -- 94
2019-09-24 05:00:00 8.5 0 Calma 6 Nordeste 0 -- -- 92
2019-09-24 04:00:00 8.8 0 Calma 4 Este 0 -- -- 91
2019-09-24 03:00:00 9 2 Este 4 Este 0 -- -- 89
2019-09-24 02:00:00 8.8 0 Calma 6 Este 0 -- -- 89
2019-09-24 01:00:00 9.1 0 Calma 5 Oeste 0 -- -- 87
2019-09-24 00:00:00 9.2 3 Sur 5 Noroeste 0 -- -- 86
2019-09-23 23:00:00 9.7 0 Calma 4 Sudeste 0 -- -- 83
2019-09-23 22:00:00 10.3 2 Este 8 Este 0 -- -- 81
2019-09-23 21:00:00 11.3 4 Sudeste 8 Sudeste 0 -- -- 77
2019-09-23 20:00:00 13 2 Oeste 15 Este 0 -- -- 73
2019-09-23 19:00:00 16.4 6 Nordeste 17 Nordeste 0 -- -- 55
2019-09-23 18:00:00 17.4 7 Nordeste 14 Oeste 0 -- -- 53
2019-09-23 17:00:00 18.1 5 Oeste 20 Nordeste 0 -- -- 53
2019-09-23 16:00:00 18.7 6 Nordeste 19 Norte 0 -- -- 50
2019-09-23 15:00:00 19.1 6 Oeste 26 Oeste 0 -- -- 51
2019-09-23 14:00:00 18 6 Nordeste 17 Este 0 -- -- 53
2019-09-23 13:00:00 17.4 7 Nordeste 17 Nordeste 0 -- -- 56
2019-09-23 12:00:00 15.6 4 Norte 13 Norte 0 -- -- 63
2019-09-23 11:00:00 13.6 3 Norte 7 Nordeste 0 -- -- 75
2019-09-23 10:00:00 10.5 0 Calma 3 Sudoeste 0 -- -- 91
2019-09-23 09:00:00 8.2 0 Calma 2 Sudoeste 0 -- -- 100
2019-09-23 08:00:00 7.4 0 Calma 3 Sur 0 -- -- 98
2019-09-23 07:00:00 7.9 0 Calma 3 Este 0 -- -- 98
2019-09-23 06:00:00 8.1 0 Calma 4 Este 0 -- -- 99
2019-09-23 05:00:00 8.5 0 Calma 4 Sur 0 -- -- 98
2019-09-23 04:00:00 9.1 0 Calma 5 Sudeste 0 -- -- 97
2019-09-23 03:00:00 9.5 0 Calma 3 Sur 0 -- -- 96
2019-09-23 02:00:00 9.8 0 Calma 4 Sudoeste 0 -- -- 95
2019-09-23 01:00:00 10.1 0 Calma 6 Sur 0 -- -- 93
2019-09-23 00:00:00 10.2 4 Este 5 Este 0 -- -- 89
2019-09-22 23:00:00 11.5 0 Calma 7 Sudeste 0.2 -- -- 85
2019-09-22 22:00:00 13.4 3 Sur 13 Sudoeste 0 -- -- 78
2019-09-22 21:00:00 16 14 Oeste 21 Oeste 0 -- -- 66
2019-09-22 20:00:00 16.7 3 Sur 10 Sudeste 0 -- -- 74
2019-09-22 19:00:00 17.3 4 Este 21 Nordeste 0 -- -- 69
2019-09-22 18:00:00 18.6 6 Nordeste 23 Nordeste 0 -- -- 71
2019-09-22 17:00:00 18 7 Nordeste 18 Este 0.6 -- -- 79
2019-09-22 16:00:00 20.8 4 Noroeste 17 Sudoeste 0 -- -- 59
2019-09-22 15:00:00 20.4 5 Noroeste 14 Nordeste 0 -- -- 58
2019-09-22 14:00:00 -- 5 Norte 16 Nordeste 0 -- -- --
2019-09-22 13:00:00 19.2 4 Norte 12 Nordeste 0 -- -- 67
2019-09-22 12:00:00 17.9 5 Nordeste 16 Nordeste 0 -- -- 73
2019-09-22 11:00:00 15.8 4 Este 8 Este 0 -- -- 84
2019-09-22 10:00:00 14 2 Oeste 4 Oeste 0 -- -- 93
2019-09-22 09:00:00 12.6 0 Calma 5 Este 0 -- -- 99
2019-09-22 08:00:00 12 0 Calma 4 Este 0 -- -- 96
2019-09-22 07:00:00 12.1 2 Sur 5 Este 0 -- -- 98
2019-09-22 06:00:00 11.9 2 Sudeste 8 Noroeste 0 -- -- 97
2019-09-22 05:00:00 12.2 2 Sudoeste 5 Este 0 -- -- 96
2019-09-22 04:00:00 11.9 0 Calma 5 Norte 0 -- -- 98
2019-09-22 03:00:00 11.4 0 Calma 6 Sudoeste 0 -- -- 98
2019-09-22 02:00:00 11 2 Sudeste 5 Oeste 0 -- -- 98
2019-09-22 01:00:00 11 0 Calma 6 Sudoeste 0 -- -- 96
2019-09-22 00:00:00 11.4 0 Calma 4 Sur 0 -- -- 95
2019-09-21 23:00:00 12 0 Calma 7 Nordeste 0 -- -- 93
2019-09-21 22:00:00 12.6 2 Sudoeste 5 Sur 0 -- -- 92
2019-09-21 21:00:00 13.7 0 Calma 14 Oeste 0 -- -- 88
2019-09-21 20:00:00 16 9 Sudoeste 17 Sudoeste 0 -- -- 80
2019-09-21 19:00:00 18.1 2 Noroeste 9 Oeste 0 -- -- 74
2019-09-21 18:00:00 18 6 Oeste 28 Sudoeste 0 -- -- 74
2019-09-21 17:00:00 19 10 Oeste 22 Sudoeste 0 -- -- 69
2019-09-21 16:00:00 19.5 11 Sudoeste 24 Oeste 0 -- -- 64
2019-09-21 15:00:00 19.1 3 Norte 23 Oeste 0 -- -- 67
2019-09-21 14:00:00 18.8 3 Norte 14 Sudoeste 0 -- -- 65
2019-09-21 13:00:00 17.3 5 Sudoeste 21 Oeste 0 -- -- 77
2019-09-21 12:00:00 15.6 10 Sudoeste 18 Sudoeste 0 -- -- 90
2019-09-21 11:00:00 14.2 4 Noroeste 24 Oeste 0 -- -- 94
2019-09-21 10:00:00 12.6 8 Sur 20 Sudoeste 4.6 -- -- 95
2019-09-21 09:00:00 13.7 4 Sur 13 Sur 1 -- -- 90
2019-09-21 08:00:00 13.3 3 Sudoeste 11 Sur 0 -- -- 77
2019-09-21 07:00:00 13.5 6 Sudoeste 17 Sudoeste 0 -- -- 74
2019-09-21 06:00:00 14.2 8 Sudoeste 18 Oeste 0 -- -- 74
2019-09-21 05:00:00 12.8 3 Sudeste 12 Sudoeste 0 -- -- 80
2019-09-21 04:00:00 11.4 0 Calma 6 Este 0 -- -- 89
2019-09-21 03:00:00 11.2 0 Calma 6 Sur 0 -- -- 94
2019-09-21 02:00:00 12 3 Sur 4 Sur 0 -- -- 92
2019-09-21 01:00:00 13.1 2 Este 5 Sudeste 0 -- -- 90
2019-09-21 00:00:00 13.9 2 Sudeste 7 Sur 0 -- -- 89
2019-09-20 23:00:00 14.4 0 Calma 6 Sudeste 0 -- -- 88
2019-09-20 22:00:00 15.6 4 Sur 19 Sudoeste 0 -- -- 83
2019-09-20 21:00:00 15.9 3 Sudoeste 12 Sudoeste 0 -- -- 81
2019-09-20 20:00:00 16.4 5 Sur 12 Sudoeste 0 -- -- 74
2019-09-20 19:00:00 18.1 4 Sudoeste 25 Oeste 0 -- -- 67
2019-09-20 18:00:00 19.6 14 Oeste 25 Oeste 0 -- -- 64
2019-09-20 17:00:00 18.9 9 Sudoeste 22 Oeste 0 -- -- 66
2019-09-20 16:00:00 18.7 10 Oeste 22 Oeste 0 -- -- 67
2019-09-20 15:00:00 19.1 11 Oeste 21 Sudoeste 0 -- -- 65
2019-09-20 14:00:00 18.4 4 Oeste 19 Oeste 0 -- -- 71
2019-09-20 13:00:00 18.3 2 Norte 10 Oeste 0 -- -- 76
2019-09-20 12:00:00 17 3 Oeste 6 Oeste 0 -- -- 83
2019-09-20 11:00:00 13.8 2 Oeste 6 Sur 0 -- -- 96
2019-09-20 10:00:00 12.3 2 Oeste 4 Oeste 0 -- -- 100
2019-09-20 09:00:00 10.7 0 Calma 4 Este 0 -- -- 100
2019-09-20 08:00:00 9.8 3 Este 5 Nordeste 0 -- -- 100
2019-09-20 07:00:00 10 0 Calma 4 Nordeste 0 -- -- 100
2019-09-20 06:00:00 10 0 Calma 3 Nordeste 0 -- -- 100
2019-09-20 05:00:00 10.3 0 Calma 4 Sudoeste 0 -- -- 100
2019-09-20 04:00:00 10.4 2 Sudeste 4 Sudeste 0 -- -- 100
2019-09-20 03:00:00 10.2 0 Calma 5 Sur 0 -- -- 100
2019-09-20 02:00:00 10.4 0 Calma 5 Oeste 0 -- -- 99
2019-09-20 01:00:00 10.8 2 Sudoeste 5 Este 0 -- -- 99
2019-09-20 00:00:00 11.7 3 Sudeste 7 Sudoeste 0 -- -- 96